sensor_id;sensor_type;location;lat;lon;timestamp;temperature;humidity
7192;DHT22;3637;51.494;11.958;2022-07-05T00:01:43;18.80;64.40
7192;DHT22;3637;51.494;11.958;2022-07-05T00:04:46;18.80;65.30
7192;DHT22;3637;51.494;11.958;2022-07-05T00:07:48;18.80;65.50
7192;DHT22;3637;51.494;11.958;2022-07-05T00:10:50;18.70;66.60
7192;DHT22;3637;51.494;11.958;2022-07-05T00:13:52;18.70;66.20
7192;DHT22;3637;51.494;11.958;2022-07-05T00:16:54;18.60;65.50
7192;DHT22;3637;51.494;11.958;2022-07-05T00:19:57;18.60;65.80
7192;DHT22;3637;51.494;11.958;2022-07-05T00:22:59;18.60;67.50
7192;DHT22;3637;51.494;11.958;2022-07-05T00:26:01;18.50;69.20
7192;DHT22;3637;51.494;11.958;2022-07-05T00:29:03;18.50;70.50
7192;DHT22;3637;51.494;11.958;2022-07-05T00:32:05;18.50;70.80
7192;DHT22;3637;51.494;11.958;2022-07-05T00:35:08;18.50;71.20
7192;DHT22;3637;51.494;11.958;2022-07-05T00:38:10;18.40;71.60
7192;DHT22;3637;51.494;11.958;2022-07-05T00:41:12;18.30;70.70
7192;DHT22;3637;51.494;11.958;2022-07-05T00:44:14;18.30;70.90
7192;DHT22;3637;51.494;11.958;2022-07-05T00:47:16;18.20;71.20
7192;DHT22;3637;51.494;11.958;2022-07-05T00:50:20;18.20;70.00
7192;DHT22;3637;51.494;11.958;2022-07-05T00:53:22;18.10;70.40
7192;DHT22;3637;51.494;11.958;2022-07-05T00:56:24;18.10;70.80
7192;DHT22;3637;51.494;11.958;2022-07-05T00:59:27;18.10;69.00
7192;DHT22;3637;51.494;11.958;2022-07-05T01:02:29;18.10;68.50
7192;DHT22;3637;51.494;11.958;2022-07-05T01:05:33;18.10;68.50
7192;DHT22;3637;51.494;11.958;2022-07-05T01:08:38;18.00;68.90
7192;DHT22;3637;51.494;11.958;2022-07-05T01:11:41;18.00;69.00
7192;DHT22;3637;51.494;11.958;2022-07-05T01:14:43;17.90;68.80
7192;DHT22;3637;51.494;11.958;2022-07-05T01:17:46;17.90;69.20
7192;DHT22;3637;51.494;11.958;2022-07-05T01:20:49;17.70;69.50
7192;DHT22;3637;51.494;11.958;2022-07-05T01:23:53;17.60;70.00
7192;DHT22;3637;51.494;11.958;2022-07-05T01:26:55;17.60;70.50
7192;DHT22;3637;51.494;11.958;2022-07-05T01:29:57;17.60;71.20
7192;DHT22;3637;51.494;11.958;2022-07-05T01:32:59;17.60;71.50
7192;DHT22;3637;51.494;11.958;2022-07-05T01:36:01;17.50;71.50
7192;DHT22;3637;51.494;11.958;2022-07-05T01:39:06;17.50;71.70
7192;DHT22;3637;51.494;11.958;2022-07-05T01:42:08;17.60;71.70
7192;DHT22;3637;51.494;11.958;2022-07-05T01:45:10;17.50;71.70
7192;DHT22;3637;51.494;11.958;2022-07-05T01:48:13;17.40;71.50
7192;DHT22;3637;51.494;11.958;2022-07-05T01:51:20;17.20;72.50
7192;DHT22;3637;51.494;11.958;2022-07-05T01:54:24;17.20;72.50
7192;DHT22;3637;51.494;11.958;2022-07-05T01:57:26;17.10;72.00
7192;DHT22;3637;51.494;11.958;2022-07-05T02:00:28;17.10;71.90
7192;DHT22;3637;51.494;11.958;2022-07-05T02:03:30;17.00;72.10
7192;DHT22;3637;51.494;11.958;2022-07-05T02:06:33;16.80;72.50
7192;DHT22;3637;51.494;11.958;2022-07-05T02:09:36;16.80;72.70
7192;DHT22;3637;51.494;11.958;2022-07-05T02:12:38;16.90;72.50
7192;DHT22;3637;51.494;11.958;2022-07-05T02:15:41;16.90;72.60
7192;DHT22;3637;51.494;11.958;2022-07-05T02:18:43;16.90;72.80
7192;DHT22;3637;51.494;11.958;2022-07-05T02:21:44;16.80;72.90
7192;DHT22;3637;51.494;11.958;2022-07-05T02:24:48;16.70;73.30
7192;DHT22;3637;51.494;11.958;2022-07-05T02:27:50;16.70;73.10
7192;DHT22;3637;51.494;11.958;2022-07-05T02:30:53;16.60;73.30
7192;DHT22;3637;51.494;11.958;2022-07-05T02:33:55;16.60;73.20
7192;DHT22;3637;51.494;11.958;2022-07-05T02:36:57;16.60;72.90
7192;DHT22;3637;51.494;11.958;2022-07-05T02:40:00;16.60;73.10
7192;DHT22;3637;51.494;11.958;2022-07-05T02:43:02;16.60;73.00
7192;DHT22;3637;51.494;11.958;2022-07-05T02:46:05;16.70;72.70
7192;DHT22;3637;51.494;11.958;2022-07-05T02:49:07;16.50;73.10
7192;DHT22;3637;51.494;11.958;2022-07-05T02:52:09;16.50;73.10
7192;DHT22;3637;51.494;11.958;2022-07-05T02:55:12;16.50;73.20
7192;DHT22;3637;51.494;11.958;2022-07-05T02:58:14;16.40;73.50
7192;DHT22;3637;51.494;11.958;2022-07-05T03:01:17;16.30;74.00
7192;DHT22;3637;51.494;11.958;2022-07-05T03:04:19;16.30;74.00
7192;DHT22;3637;51.494;11.958;2022-07-05T03:07:21;16.40;74.10
7192;DHT22;3637;51.494;11.958;2022-07-05T03:10:24;16.30;74.70
7192;DHT22;3637;51.494;11.958;2022-07-05T03:13:26;16.30;74.80
7192;DHT22;3637;51.494;11.958;2022-07-05T03:16:28;16.20;75.40
7192;DHT22;3637;51.494;11.958;2022-07-05T03:19:30;16.20;75.60
7192;DHT22;3637;51.494;11.958;2022-07-05T03:22:32;16.20;75.80
7192;DHT22;3637;51.494;11.958;2022-07-05T03:25:35;16.10;76.20
7192;DHT22;3637;51.494;11.958;2022-07-05T03:28:37;16.10;76.90
7192;DHT22;3637;51.494;11.958;2022-07-05T03:31:39;16.00;77.00
7192;DHT22;3637;51.494;11.958;2022-07-05T03:34:41;16.20;77.20
7192;DHT22;3637;51.494;11.958;2022-07-05T03:37:43;16.20;77.20
7192;DHT22;3637;51.494;11.958;2022-07-05T03:40:46;16.30;77.00
7192;DHT22;3637;51.494;11.958;2022-07-05T03:43:48;16.30;77.70
7192;DHT22;3637;51.494;11.958;2022-07-05T03:46:50;16.40;77.20
7192;DHT22;3637;51.494;11.958;2022-07-05T03:49:52;16.50;77.20
7192;DHT22;3637;51.494;11.958;2022-07-05T03:52:55;16.50;77.20
7192;DHT22;3637;51.494;11.958;2022-07-05T03:55:58;16.50;77.40
7192;DHT22;3637;51.494;11.958;2022-07-05T03:59:00;16.60;77.40
7192;DHT22;3637;51.494;11.958;2022-07-05T04:02:02;16.60;77.40
7192;DHT22;3637;51.494;11.958;2022-07-05T04:05:05;16.60;77.90
7192;DHT22;3637;51.494;11.958;2022-07-05T04:08:07;16.60;78.00
7192;DHT22;3637;51.494;11.958;2022-07-05T04:11:11;16.60;78.60
7192;DHT22;3637;51.494;11.958;2022-07-05T04:14:13;16.60;78.90
7192;DHT22;3637;51.494;11.958;2022-07-05T04:17:15;16.50;79.40
7192;DHT22;3637;51.494;11.958;2022-07-05T04:20:17;16.40;79.70
7192;DHT22;3637;51.494;11.958;2022-07-05T04:23:19;16.40;80.10
7192;DHT22;3637;51.494;11.958;2022-07-05T04:26:22;16.50;81.00
7192;DHT22;3637;51.494;11.958;2022-07-05T04:29:24;16.40;80.40
7192;DHT22;3637;51.494;11.958;2022-07-05T04:32:26;16.50;80.50
7192;DHT22;3637;51.494;11.958;2022-07-05T04:35:28;16.60;80.50
7192;DHT22;3637;51.494;11.958;2022-07-05T04:38:30;16.60;80.40
7192;DHT22;3637;51.494;11.958;2022-07-05T04:41:34;16.70;80.40
7192;DHT22;3637;51.494;11.958;2022-07-05T04:44:36;16.80;80.40
7192;DHT22;3637;51.494;11.958;2022-07-05T04:47:38;16.80;80.50
7192;DHT22;3637;51.494;11.958;2022-07-05T04:50:39;16.80;80.90
7192;DHT22;3637;51.494;11.958;2022-07-05T04:53:41;16.90;80.80
7192;DHT22;3637;51.494;11.958;2022-07-05T04:56:45;16.90;80.40
7192;DHT22;3637;51.494;11.958;2022-07-05T04:59:47;17.00;80.40
7192;DHT22;3637;51.494;11.958;2022-07-05T05:02:49;17.10;80.00
7192;DHT22;3637;51.494;11.958;2022-07-05T05:05:51;17.20;79.90
7192;DHT22;3637;51.494;11.958;2022-07-05T05:08:53;17.20;79.70
7192;DHT22;3637;51.494;11.958;2022-07-05T05:11:56;17.40;79.00
7192;DHT22;3637;51.494;11.958;2022-07-05T05:14:58;17.60;78.60
7192;DHT22;3637;51.494;11.958;2022-07-05T05:18:00;17.70;77.90
7192;DHT22;3637;51.494;11.958;2022-07-05T05:21:02;17.90;77.80
7192;DHT22;3637;51.494;11.958;2022-07-05T05:24:05;17.90;77.30
7192;DHT22;3637;51.494;11.958;2022-07-05T05:27:09;18.00;77.10
7192;DHT22;3637;51.494;11.958;2022-07-05T05:30:12;18.00;76.20
7192;DHT22;3637;51.494;11.958;2022-07-05T05:33:14;18.00;74.90
7192;DHT22;3637;51.494;11.958;2022-07-05T05:36:17;18.10;75.10
7192;DHT22;3637;51.494;11.958;2022-07-05T05:39:19;18.30;73.90
7192;DHT22;3637;51.494;11.958;2022-07-05T05:42:22;18.30;72.40
7192;DHT22;3637;51.494;11.958;2022-07-05T05:45:24;18.40;71.70
7192;DHT22;3637;51.494;11.958;2022-07-05T05:48:26;18.50;71.60
7192;DHT22;3637;51.494;11.958;2022-07-05T05:51:28;18.60;70.80
7192;DHT22;3637;51.494;11.958;2022-07-05T05:54:30;18.60;69.90
7192;DHT22;3637;51.494;11.958;2022-07-05T05:57:34;18.80;69.20
7192;DHT22;3637;51.494;11.958;2022-07-05T06:00:37;18.80;68.30
7192;DHT22;3637;51.494;11.958;2022-07-05T06:03:39;18.80;68.30
7192;DHT22;3637;51.494;11.958;2022-07-05T06:06:41;18.80;68.90
7192;DHT22;3637;51.494;11.958;2022-07-05T06:09:42;18.80;68.50
7192;DHT22;3637;51.494;11.958;2022-07-05T06:12:46;18.90;68.10
7192;DHT22;3637;51.494;11.958;2022-07-05T06:15:48;19.00;67.90
7192;DHT22;3637;51.494;11.958;2022-07-05T06:18:50;18.90;68.20
7192;DHT22;3637;51.494;11.958;2022-07-05T06:21:52;19.00;68.30
7192;DHT22;3637;51.494;11.958;2022-07-05T06:24:53;19.10;67.80
7192;DHT22;3637;51.494;11.958;2022-07-05T06:27:59;19.30;67.60
7192;DHT22;3637;51.494;11.958;2022-07-05T06:31:01;19.40;68.00
7192;DHT22;3637;51.494;11.958;2022-07-05T06:34:02;19.40;68.10
7192;DHT22;3637;51.494;11.958;2022-07-05T06:37:05;19.60;68.20
7192;DHT22;3637;51.494;11.958;2022-07-05T06:40:07;19.60;68.00
7192;DHT22;3637;51.494;11.958;2022-07-05T06:43:13;19.70;67.00
7192;DHT22;3637;51.494;11.958;2022-07-05T06:46:15;19.70;66.90
7192;DHT22;3637;51.494;11.958;2022-07-05T06:49:17;19.80;66.80
7192;DHT22;3637;51.494;11.958;2022-07-05T06:52:20;19.90;66.70
7192;DHT22;3637;51.494;11.958;2022-07-05T06:55:26;20.00;67.20
7192;DHT22;3637;51.494;11.958;2022-07-05T06:58:30;20.00;66.80
7192;DHT22;3637;51.494;11.958;2022-07-05T07:01:32;20.00;67.10
7192;DHT22;3637;51.494;11.958;2022-07-05T07:04:33;20.10;67.10
7192;DHT22;3637;51.494;11.958;2022-07-05T07:07:35;20.10;66.60
7192;DHT22;3637;51.494;11.958;2022-07-05T07:10:54;20.20;66.30
7192;DHT22;3637;51.494;11.958;2022-07-05T07:13:58;20.10;66.50
7192;DHT22;3637;51.494;11.958;2022-07-05T07:17:00;20.10;66.20
7192;DHT22;3637;51.494;11.958;2022-07-05T07:20:02;20.10;66.90
7192;DHT22;3637;51.494;11.958;2022-07-05T07:23:03;20.10;66.50
7192;DHT22;3637;51.494;11.958;2022-07-05T07:26:05;20.30;66.50
7192;DHT22;3637;51.494;11.958;2022-07-05T07:29:09;20.40;65.80
7192;DHT22;3637;51.494;11.958;2022-07-05T07:32:11;20.60;65.10
7192;DHT22;3637;51.494;11.958;2022-07-05T07:35:15;20.70;64.90
7192;DHT22;3637;51.494;11.958;2022-07-05T07:38:17;20.80;64.80
7192;DHT22;3637;51.494;11.958;2022-07-05T07:41:19;20.90;65.00
7192;DHT22;3637;51.494;11.958;2022-07-05T07:44:23;20.90;63.80
7192;DHT22;3637;51.494;11.958;2022-07-05T07:47:25;21.00;64.30
7192;DHT22;3637;51.494;11.958;2022-07-05T07:50:26;21.10;63.80
7192;DHT22;3637;51.494;11.958;2022-07-05T07:53:28;21.00;64.10
7192;DHT22;3637;51.494;11.958;2022-07-05T07:56:30;21.10;64.70
7192;DHT22;3637;51.494;11.958;2022-07-05T07:59:34;21.20;63.70
7192;DHT22;3637;51.494;11.958;2022-07-05T08:02:39;21.20;64.50
7192;DHT22;3637;51.494;11.958;2022-07-05T08:05:40;21.20;64.40
7192;DHT22;3637;51.494;11.958;2022-07-05T08:08:45;21.20;64.50
7192;DHT22;3637;51.494;11.958;2022-07-05T08:11:48;21.20;64.30
7192;DHT22;3637;51.494;11.958;2022-07-05T08:14:51;21.20;64.50
7192;DHT22;3637;51.494;11.958;2022-07-05T08:17:53;21.10;64.20
7192;DHT22;3637;51.494;11.958;2022-07-05T08:21:12;21.10;64.00
7192;DHT22;3637;51.494;11.958;2022-07-05T08:24:32;21.10;64.30
7192;DHT22;3637;51.494;11.958;2022-07-05T08:27:34;21.10;64.40
7192;DHT22;3637;51.494;11.958;2022-07-05T08:30:38;21.30;64.20
7192;DHT22;3637;51.494;11.958;2022-07-05T08:33:39;21.30;64.50
7192;DHT22;3637;51.494;11.958;2022-07-05T08:36:41;21.40;64.30
7192;DHT22;3637;51.494;11.958;2022-07-05T08:39:43;21.40;64.80
7192;DHT22;3637;51.494;11.958;2022-07-05T08:42:45;21.40;64.20
7192;DHT22;3637;51.494;11.958;2022-07-05T08:45:49;21.40;65.00
7192;DHT22;3637;51.494;11.958;2022-07-05T08:48:51;21.60;64.50
7192;DHT22;3637;51.494;11.958;2022-07-05T08:51:54;21.60;64.20
7192;DHT22;3637;51.494;11.958;2022-07-05T08:54:57;21.60;63.40
7192;DHT22;3637;51.494;11.958;2022-07-05T08:58:00;21.70;63.20
7192;DHT22;3637;51.494;11.958;2022-07-05T09:01:04;21.70;63.40
7192;DHT22;3637;51.494;11.958;2022-07-05T09:04:07;21.70;63.00
7192;DHT22;3637;51.494;11.958;2022-07-05T09:07:10;21.90;62.70
7192;DHT22;3637;51.494;11.958;2022-07-05T09:10:17;21.90;62.90
7192;DHT22;3637;51.494;11.958;2022-07-05T09:13:21;22.00;62.90
7192;DHT22;3637;51.494;11.958;2022-07-05T09:16:24;21.90;62.70
7192;DHT22;3637;51.494;11.958;2022-07-05T09:19:26;21.80;63.50
7192;DHT22;3637;51.494;11.958;2022-07-05T09:22:41;21.80;62.90
7192;DHT22;3637;51.494;11.958;2022-07-05T09:25:44;22.00;63.00
7192;DHT22;3637;51.494;11.958;2022-07-05T09:28:54;22.00;62.30
7192;DHT22;3637;51.494;11.958;2022-07-05T09:31:59;22.20;62.00
7192;DHT22;3637;51.494;11.958;2022-07-05T09:35:19;22.30;61.50
7192;DHT22;3637;51.494;11.958;2022-07-05T09:38:22;22.40;61.80
7192;DHT22;3637;51.494;11.958;2022-07-05T09:41:24;22.50;61.50
7192;DHT22;3637;51.494;11.958;2022-07-05T09:44:26;22.60;61.00
7192;DHT22;3637;51.494;11.958;2022-07-05T09:47:30;22.80;60.00
7192;DHT22;3637;51.494;11.958;2022-07-05T09:50:35;23.00;59.30
7192;DHT22;3637;51.494;11.958;2022-07-05T09:53:46;23.00;59.10
7192;DHT22;3637;51.494;11.958;2022-07-05T09:56:48;22.90;58.70
7192;DHT22;3637;51.494;11.958;2022-07-05T09:59:58;22.90;59.20
7192;DHT22;3637;51.494;11.958;2022-07-05T10:03:02;22.70;60.20
7192;DHT22;3637;51.494;11.958;2022-07-05T10:06:10;22.60;59.30
7192;DHT22;3637;51.494;11.958;2022-07-05T10:09:12;22.60;59.80
7192;DHT22;3637;51.494;11.958;2022-07-05T10:12:15;22.70;60.40
7192;DHT22;3637;51.494;11.958;2022-07-05T10:15:19;22.80;59.60
7192;DHT22;3637;51.494;11.958;2022-07-05T10:18:24;22.90;58.80
7192;DHT22;3637;51.494;11.958;2022-07-05T10:21:32;22.90;58.50
7192;DHT22;3637;51.494;11.958;2022-07-05T10:24:35;23.10;58.40
7192;DHT22;3637;51.494;11.958;2022-07-05T10:27:38;22.90;58.20
7192;DHT22;3637;51.494;11.958;2022-07-05T10:30:40;23.00;58.00
7192;DHT22;3637;51.494;11.958;2022-07-05T10:33:46;23.00;58.20
7192;DHT22;3637;51.494;11.958;2022-07-05T10:36:50;23.00;57.70
7192;DHT22;3637;51.494;11.958;2022-07-05T10:39:51;23.20;56.80
7192;DHT22;3637;51.494;11.958;2022-07-05T10:42:56;23.30;56.30
7192;DHT22;3637;51.494;11.958;2022-07-05T10:46:00;23.30;56.10
7192;DHT22;3637;51.494;11.958;2022-07-05T10:49:15;23.20;57.00
7192;DHT22;3637;51.494;11.958;2022-07-05T10:52:22;23.10;56.90
7192;DHT22;3637;51.494;11.958;2022-07-05T10:55:25;23.20;56.60
7192;DHT22;3637;51.494;11.958;2022-07-05T10:58:28;23.20;56.40
7192;DHT22;3637;51.494;11.958;2022-07-05T11:01:35;23.30;56.20
7192;DHT22;3637;51.494;11.958;2022-07-05T11:04:39;23.40;55.10
7192;DHT22;3637;51.494;11.958;2022-07-05T11:08:00;23.50;55.50
7192;DHT22;3637;51.494;11.958;2022-07-05T11:11:10;23.70;55.70
7192;DHT22;3637;51.494;11.958;2022-07-05T11:14:33;23.90;54.30
7192;DHT22;3637;51.494;11.958;2022-07-05T11:17:37;24.20;52.50
7192;DHT22;3637;51.494;11.958;2022-07-05T11:20:41;24.30;52.00
7192;DHT22;3637;51.494;11.958;2022-07-05T11:23:43;24.50;51.80
7192;DHT22;3637;51.494;11.958;2022-07-05T11:26:45;24.50;49.40
7192;DHT22;3637;51.494;11.958;2022-07-05T11:29:48;24.30;49.90
7192;DHT22;3637;51.494;11.958;2022-07-05T11:32:50;24.40;50.20
7192;DHT22;3637;51.494;11.958;2022-07-05T11:35:53;24.40;49.70
7192;DHT22;3637;51.494;11.958;2022-07-05T11:39:09;24.40;50.10
7192;DHT22;3637;51.494;11.958;2022-07-05T11:42:21;24.40;50.60
7192;DHT22;3637;51.494;11.958;2022-07-05T11:45:23;24.50;51.90
7192;DHT22;3637;51.494;11.958;2022-07-05T11:48:26;24.40;51.80
7192;DHT22;3637;51.494;11.958;2022-07-05T11:51:29;24.20;52.60
7192;DHT22;3637;51.494;11.958;2022-07-05T11:54:32;24.20;51.80
7192;DHT22;3637;51.494;11.958;2022-07-05T11:57:34;24.20;51.20
7192;DHT22;3637;51.494;11.958;2022-07-05T12:00:37;24.20;51.80
7192;DHT22;3637;51.494;11.958;2022-07-05T12:03:40;24.20;52.70
7192;DHT22;3637;51.494;11.958;2022-07-05T12:06:44;24.10;51.90
7192;DHT22;3637;51.494;11.958;2022-07-05T12:09:51;24.10;52.20
7192;DHT22;3637;51.494;11.958;2022-07-05T12:13:11;24.00;51.20
7192;DHT22;3637;51.494;11.958;2022-07-05T12:16:14;24.20;51.70
7192;DHT22;3637;51.494;11.958;2022-07-05T12:19:24;24.20;50.80
7192;DHT22;3637;51.494;11.958;2022-07-05T12:22:32;24.20;51.30
7192;DHT22;3637;51.494;11.958;2022-07-05T12:25:34;24.20;51.10
7192;DHT22;3637;51.494;11.958;2022-07-05T12:28:37;24.20;51.80
7192;DHT22;3637;51.494;11.958;2022-07-05T12:31:58;24.20;50.60
7192;DHT22;3637;51.494;11.958;2022-07-05T12:35:00;24.20;50.80
7192;DHT22;3637;51.494;11.958;2022-07-05T12:38:09;24.20;52.00
7192;DHT22;3637;51.494;11.958;2022-07-05T12:41:21;24.20;50.60
7192;DHT22;3637;51.494;11.958;2022-07-05T12:44:28;24.20;51.20
7192;DHT22;3637;51.494;11.958;2022-07-05T12:47:36;24.10;51.30
7192;DHT22;3637;51.494;11.958;2022-07-05T12:50:46;24.10;50.20
7192;DHT22;3637;51.494;11.958;2022-07-05T12:53:50;24.10;50.80
7192;DHT22;3637;51.494;11.958;2022-07-05T12:57:14;24.30;51.30
7192;DHT22;3637;51.494;11.958;2022-07-05T13:00:34;24.60;52.20
7192;DHT22;3637;51.494;11.958;2022-07-05T13:03:57;24.70;51.30
7192;DHT22;3637;51.494;11.958;2022-07-05T13:07:01;24.70;51.50
7192;DHT22;3637;51.494;11.958;2022-07-05T13:10:17;24.90;51.60
7192;DHT22;3637;51.494;11.958;2022-07-05T13:13:19;25.00;50.70
7192;DHT22;3637;51.494;11.958;2022-07-05T13:16:21;25.00;51.40
7192;DHT22;3637;51.494;11.958;2022-07-05T13:19:23;25.00;50.90
7192;DHT22;3637;51.494;11.958;2022-07-05T13:22:25;24.90;50.70
7192;DHT22;3637;51.494;11.958;2022-07-05T13:25:28;24.90;51.20
7192;DHT22;3637;51.494;11.958;2022-07-05T13:28:30;25.00;50.10
7192;DHT22;3637;51.494;11.958;2022-07-05T13:31:32;25.10;50.80
7192;DHT22;3637;51.494;11.958;2022-07-05T13:34:33;25.00;50.00
7192;DHT22;3637;51.494;11.958;2022-07-05T13:37:35;25.00;49.90
7192;DHT22;3637;51.494;11.958;2022-07-05T13:40:39;24.90;50.50
7192;DHT22;3637;51.494;11.958;2022-07-05T13:43:40;24.90;50.50
7192;DHT22;3637;51.494;11.958;2022-07-05T13:46:44;24.90;50.50
7192;DHT22;3637;51.494;11.958;2022-07-05T13:49:46;24.80;51.20
7192;DHT22;3637;51.494;11.958;2022-07-05T13:52:48;24.80;50.60
7192;DHT22;3637;51.494;11.958;2022-07-05T13:55:51;24.70;50.60
7192;DHT22;3637;51.494;11.958;2022-07-05T13:58:53;24.70;50.90
7192;DHT22;3637;51.494;11.958;2022-07-05T14:01:55;24.70;51.30
7192;DHT22;3637;51.494;11.958;2022-07-05T14:04:58;24.70;51.00
7192;DHT22;3637;51.494;11.958;2022-07-05T14:08:00;24.80;51.10
7192;DHT22;3637;51.494;11.958;2022-07-05T14:11:03;24.60;51.50
7192;DHT22;3637;51.494;11.958;2022-07-05T14:14:05;24.60;50.40
7192;DHT22;3637;51.494;11.958;2022-07-05T14:17:07;24.70;50.50
7192;DHT22;3637;51.494;11.958;2022-07-05T14:20:09;24.70;49.80
7192;DHT22;3637;51.494;11.958;2022-07-05T14:23:12;24.80;50.00
7192;DHT22;3637;51.494;11.958;2022-07-05T14:26:16;24.90;50.30
7192;DHT22;3637;51.494;11.958;2022-07-05T14:29:18;25.10;50.10
7192;DHT22;3637;51.494;11.958;2022-07-05T14:32:19;25.30;48.80
7192;DHT22;3637;51.494;11.958;2022-07-05T14:35:21;25.30;49.40
7192;DHT22;3637;51.494;11.958;2022-07-05T14:38:24;25.30;49.50
7192;DHT22;3637;51.494;11.958;2022-07-05T14:41:27;25.20;48.80
7192;DHT22;3637;51.494;11.958;2022-07-05T14:44:29;25.30;49.50
7192;DHT22;3637;51.494;11.958;2022-07-05T14:47:31;25.30;48.80
7192;DHT22;3637;51.494;11.958;2022-07-05T14:50:33;25.20;49.30
7192;DHT22;3637;51.494;11.958;2022-07-05T14:53:35;25.10;49.60
7192;DHT22;3637;51.494;11.958;2022-07-05T14:56:38;25.00;48.90
7192;DHT22;3637;51.494;11.958;2022-07-05T14:59:40;25.10;49.60
7192;DHT22;3637;51.494;11.958;2022-07-05T15:02:43;25.30;49.30
7192;DHT22;3637;51.494;11.958;2022-07-05T15:05:44;25.30;48.80
7192;DHT22;3637;51.494;11.958;2022-07-05T15:08:46;25.30;49.30
7192;DHT22;3637;51.494;11.958;2022-07-05T15:11:50;25.40;48.70
7192;DHT22;3637;51.494;11.958;2022-07-05T15:14:52;25.40;48.30
7192;DHT22;3637;51.494;11.958;2022-07-05T15:17:54;25.50;48.20
7192;DHT22;3637;51.494;11.958;2022-07-05T15:20:57;25.50;48.20
7192;DHT22;3637;51.494;11.958;2022-07-05T15:23:59;25.60;47.80
7192;DHT22;3637;51.494;11.958;2022-07-05T15:27:03;25.50;48.00
7192;DHT22;3637;51.494;11.958;2022-07-05T15:30:06;25.40;48.60
7192;DHT22;3637;51.494;11.958;2022-07-05T15:33:08;25.40;49.10
7192;DHT22;3637;51.494;11.958;2022-07-05T15:36:09;25.40;48.90
7192;DHT22;3637;51.494;11.958;2022-07-05T15:39:11;25.50;48.20
7192;DHT22;3637;51.494;11.958;2022-07-05T15:42:15;25.50;48.80
7192;DHT22;3637;51.494;11.958;2022-07-05T15:45:19;25.60;49.00
7192;DHT22;3637;51.494;11.958;2022-07-05T15:48:21;25.70;48.90
7192;DHT22;3637;51.494;11.958;2022-07-05T15:51:23;25.70;48.30
7192;DHT22;3637;51.494;11.958;2022-07-05T15:54:25;25.70;48.50
7192;DHT22;3637;51.494;11.958;2022-07-05T15:57:29;25.60;47.90
7192;DHT22;3637;51.494;11.958;2022-07-05T16:00:31;25.60;47.60
7192;DHT22;3637;51.494;11.958;2022-07-05T16:03:32;25.50;47.50
7192;DHT22;3637;51.494;11.958;2022-07-05T16:06:34;25.50;47.60
7192;DHT22;3637;51.494;11.958;2022-07-05T16:09:36;25.40;47.60
7192;DHT22;3637;51.494;11.958;2022-07-05T16:12:40;25.40;47.90
7192;DHT22;3637;51.494;11.958;2022-07-05T16:15:41;25.30;47.20
7192;DHT22;3637;51.494;11.958;2022-07-05T16:19:01;25.20;47.40
7192;DHT22;3637;51.494;11.958;2022-07-05T16:22:03;25.30;47.40
7192;DHT22;3637;51.494;11.958;2022-07-05T16:25:06;25.20;47.90
7192;DHT22;3637;51.494;11.958;2022-07-05T16:28:09;25.10;47.40
7192;DHT22;3637;51.494;11.958;2022-07-05T16:31:12;25.00;47.20
7192;DHT22;3637;51.494;11.958;2022-07-05T16:34:15;25.00;47.40
7192;DHT22;3637;51.494;11.958;2022-07-05T16:37:17;24.80;47.00
7192;DHT22;3637;51.494;11.958;2022-07-05T16:40:19;24.70;47.00
7192;DHT22;3637;51.494;11.958;2022-07-05T16:43:22;24.70;46.80
7192;DHT22;3637;51.494;11.958;2022-07-05T16:46:27;24.70;46.90
7192;DHT22;3637;51.494;11.958;2022-07-05T16:49:32;24.60;46.10
7192;DHT22;3637;51.494;11.958;2022-07-05T16:52:34;24.60;46.70
7192;DHT22;3637;51.494;11.958;2022-07-05T16:55:38;24.70;46.60
7192;DHT22;3637;51.494;11.958;2022-07-05T16:58:43;24.60;46.30
7192;DHT22;3637;51.494;11.958;2022-07-05T17:01:45;24.50;46.40
7192;DHT22;3637;51.494;11.958;2022-07-05T17:04:47;24.30;46.20
7192;DHT22;3637;51.494;11.958;2022-07-05T17:07:49;24.20;45.70
7192;DHT22;3637;51.494;11.958;2022-07-05T17:10:51;24.20;45.70
7192;DHT22;3637;51.494;11.958;2022-07-05T17:13:54;24.20;45.60
7192;DHT22;3637;51.494;11.958;2022-07-05T17:16:58;24.20;45.10
7192;DHT22;3637;51.494;11.958;2022-07-05T17:19:59;24.10;45.20
7192;DHT22;3637;51.494;11.958;2022-07-05T17:23:01;24.10;45.00
7192;DHT22;3637;51.494;11.958;2022-07-05T17:26:04;24.10;45.10
7192;DHT22;3637;51.494;11.958;2022-07-05T17:29:07;24.10;44.80
7192;DHT22;3637;51.494;11.958;2022-07-05T17:32:09;24.10;44.60
7192;DHT22;3637;51.494;11.958;2022-07-05T17:35:11;24.00;44.10
7192;DHT22;3637;51.494;11.958;2022-07-05T17:38:13;24.00;44.40
7192;DHT22;3637;51.494;11.958;2022-07-05T17:41:15;23.90;44.50
7192;DHT22;3637;51.494;11.958;2022-07-05T17:44:19;23.80;44.30
7192;DHT22;3637;51.494;11.958;2022-07-05T17:47:21;23.80;44.60
7192;DHT22;3637;51.494;11.958;2022-07-05T17:50:25;23.70;44.30
7192;DHT22;3637;51.494;11.958;2022-07-05T17:53:29;23.60;44.80
7192;DHT22;3637;51.494;11.958;2022-07-05T17:56:31;23.60;44.50
7192;DHT22;3637;51.494;11.958;2022-07-05T17:59:34;23.60;44.60
7192;DHT22;3637;51.494;11.958;2022-07-05T18:02:36;23.50;44.40
7192;DHT22;3637;51.494;11.958;2022-07-05T18:05:38;23.40;44.70
7192;DHT22;3637;51.494;11.958;2022-07-05T18:08:40;23.40;45.00
7192;DHT22;3637;51.494;11.958;2022-07-05T18:11:42;23.30;45.30
7192;DHT22;3637;51.494;11.958;2022-07-05T18:14:45;23.30;45.20
7192;DHT22;3637;51.494;11.958;2022-07-05T18:17:47;23.20;45.30
7192;DHT22;3637;51.494;11.958;2022-07-05T18:20:49;23.10;45.40
7192;DHT22;3637;51.494;11.958;2022-07-05T18:23:52;23.00;45.40
7192;DHT22;3637;51.494;11.958;2022-07-05T18:26:53;22.90;45.20
7192;DHT22;3637;51.494;11.958;2022-07-05T18:29:57;22.90;45.50
7192;DHT22;3637;51.494;11.958;2022-07-05T18:32:59;22.90;45.50
7192;DHT22;3637;51.494;11.958;2022-07-05T18:36:00;23.00;45.30
7192;DHT22;3637;51.494;11.958;2022-07-05T18:39:03;23.00;45.50
7192;DHT22;3637;51.494;11.958;2022-07-05T18:42:05;22.90;45.60
7192;DHT22;3637;51.494;11.958;2022-07-05T18:45:09;22.90;46.10
7192;DHT22;3637;51.494;11.958;2022-07-05T18:48:11;22.80;46.30
7192;DHT22;3637;51.494;11.958;2022-07-05T18:51:13;22.70;46.70
7192;DHT22;3637;51.494;11.958;2022-07-05T18:54:15;22.70;46.10
7192;DHT22;3637;51.494;11.958;2022-07-05T18:57:17;22.60;45.80
7192;DHT22;3637;51.494;11.958;2022-07-05T19:00:20;22.50;46.20
7192;DHT22;3637;51.494;11.958;2022-07-05T19:03:22;22.40;46.00
7192;DHT22;3637;51.494;11.958;2022-07-05T19:06:26;22.40;45.70
7192;DHT22;3637;51.494;11.958;2022-07-05T19:09:45;22.50;45.50
7192;DHT22;3637;51.494;11.958;2022-07-05T19:13:04;22.30;45.70
7192;DHT22;3637;51.494;11.958;2022-07-05T19:16:25;22.30;45.20
7192;DHT22;3637;51.494;11.958;2022-07-05T19:19:27;22.20;45.40
7192;DHT22;3637;51.494;11.958;2022-07-05T19:22:29;22.10;45.70
7192;DHT22;3637;51.494;11.958;2022-07-05T19:25:31;22.00;45.70
7192;DHT22;3637;51.494;11.958;2022-07-05T19:28:33;22.00;45.70
7192;DHT22;3637;51.494;11.958;2022-07-05T19:31:36;21.90;45.90
7192;DHT22;3637;51.494;11.958;2022-07-05T19:34:38;22.00;45.90
7192;DHT22;3637;51.494;11.958;2022-07-05T19:37:40;22.00;46.00